sensor_id;sensor_type;location;lat;lon;timestamp;temperature;humidity
42031;DHT22;27709;52.036;5.906;2023-04-01T00:00:33;10.60;99.90
42031;DHT22;27709;52.036;5.906;2023-04-01T00:02:59;10.60;99.90
42031;DHT22;27709;52.036;5.906;2023-04-01T00:05:26;10.60;99.90
42031;DHT22;27709;52.036;5.906;2023-04-01T00:07:51;10.60;99.90
42031;DHT22;27709;52.036;5.906;2023-04-01T00:10:17;10.60;99.90
42031;DHT22;27709;52.036;5.906;2023-04-01T00:12:42;10.60;99.90
42031;DHT22;27709;52.036;5.906;2023-04-01T00:15:09;10.60;99.90
42031;DHT22;27709;52.036;5.906;2023-04-01T00:17:35;10.60;99.90
42031;DHT22;27709;52.036;5.906;2023-04-01T00:20:01;10.60;99.90
42031;DHT22;27709;52.036;5.906;2023-04-01T00:22:27;10.70;99.90
42031;DHT22;27709;52.036;5.906;2023-04-01T00:24:53;10.70;99.90
42031;DHT22;27709;52.036;5.906;2023-04-01T00:27:19;10.70;99.90
42031;DHT22;27709;52.036;5.906;2023-04-01T00:29:45;10.60;99.90
42031;DHT22;27709;52.036;5.906;2023-04-01T00:32:10;10.70;99.90
42031;DHT22;27709;52.036;5.906;2023-04-01T00:34:36;10.70;99.90
42031;DHT22;27709;52.036;5.906;2023-04-01T00:37:03;10.70;99.90
42031;DHT22;27709;52.036;5.906;2023-04-01T00:39:29;10.70;99.90
42031;DHT22;27709;52.036;5.906;2023-04-01T00:41:55;10.70;99.90
42031;DHT22;27709;52.036;5.906;2023-04-01T00:44:23;10.60;99.90
42031;DHT22;27709;52.036;5.906;2023-04-01T00:46:49;10.70;99.90
42031;DHT22;27709;52.036;5.906;2023-04-01T00:49:15;10.60;99.90
42031;DHT22;27709;52.036;5.906;2023-04-01T00:51:42;10.60;99.90
42031;DHT22;27709;52.036;5.906;2023-04-01T00:54:09;10.70;99.90
42031;DHT22;27709;52.036;5.906;2023-04-01T00:57:09;10.70;99.90
42031;DHT22;27709;52.036;5.906;2023-04-01T00:59:27;10.70;99.90
42031;DHT22;27709;52.036;5.906;2023-04-01T01:01:55;10.70;99.90
42031;DHT22;27709;52.036;5.906;2023-04-01T01:04:30;10.70;99.90
42031;DHT22;27709;52.036;5.906;2023-04-01T01:07:12;10.70;99.90
42031;DHT22;27709;52.036;5.906;2023-04-01T01:17:43;10.70;99.90
42031;DHT22;27709;52.036;5.906;2023-04-01T01:22:43;10.80;99.90
42031;DHT22;27709;52.036;5.906;2023-04-01T01:25:14;10.70;99.90
42031;DHT22;27709;52.036;5.906;2023-04-01T01:27:41;10.80;99.90
42031;DHT22;27709;52.036;5.906;2023-04-01T01:35:20;10.80;99.90
42031;DHT22;27709;52.036;5.906;2023-04-01T01:37:46;10.80;99.90
42031;DHT22;27709;52.036;5.906;2023-04-01T01:40:14;10.80;99.90
42031;DHT22;27709;52.036;5.906;2023-04-01T01:42:41;10.80;99.90
42031;DHT22;27709;52.036;5.906;2023-04-01T01:45:09;10.80;99.90
42031;DHT22;27709;52.036;5.906;2023-04-01T01:47:35;10.80;99.90
42031;DHT22;27709;52.036;5.906;2023-04-01T01:50:01;10.80;99.90
42031;DHT22;27709;52.036;5.906;2023-04-01T01:52:28;10.80;99.90
42031;DHT22;27709;52.036;5.906;2023-04-01T01:54:55;10.80;99.90
42031;DHT22;27709;52.036;5.906;2023-04-01T01:57:23;10.80;99.90
42031;DHT22;27709;52.036;5.906;2023-04-01T01:59:49;10.80;99.90
42031;DHT22;27709;52.036;5.906;2023-04-01T02:02:16;10.80;99.90
42031;DHT22;27709;52.036;5.906;2023-04-01T02:04:42;10.80;99.90
42031;DHT22;27709;52.036;5.906;2023-04-01T02:07:14;10.80;99.90
42031;DHT22;27709;52.036;5.906;2023-04-01T02:09:41;10.80;99.90
42031;DHT22;27709;52.036;5.906;2023-04-01T02:12:07;10.80;99.90
42031;DHT22;27709;52.036;5.906;2023-04-01T02:17:06;10.80;99.90
42031;DHT22;27709;52.036;5.906;2023-04-01T02:19:33;10.80;99.90
42031;DHT22;27709;52.036;5.906;2023-04-01T02:22:02;10.80;99.90
42031;DHT22;27709;52.036;5.906;2023-04-01T02:24:28;10.70;99.90
42031;DHT22;27709;52.036;5.906;2023-04-01T02:26:55;10.70;99.90
42031;DHT22;27709;52.036;5.906;2023-04-01T02:29:21;10.70;99.90
42031;DHT22;27709;52.036;5.906;2023-04-01T02:31:48;10.60;99.90
42031;DHT22;27709;52.036;5.906;2023-04-01T02:34:14;10.60;99.90
42031;DHT22;27709;52.036;5.906;2023-04-01T02:36:40;10.60;99.90
42031;DHT22;27709;52.036;5.906;2023-04-01T02:39:06;10.60;99.90
42031;DHT22;27709;52.036;5.906;2023-04-01T02:41:31;10.70;99.90
42031;DHT22;27709;52.036;5.906;2023-04-01T02:44:03;10.60;99.90
42031;DHT22;27709;52.036;5.906;2023-04-01T02:46:29;10.60;99.90
42031;DHT22;27709;52.036;5.906;2023-04-01T02:48:54;10.60;99.90
42031;DHT22;27709;52.036;5.906;2023-04-01T02:51:20;10.60;99.90
42031;DHT22;27709;52.036;5.906;2023-04-01T02:53:45;10.60;99.90
42031;DHT22;27709;52.036;5.906;2023-04-01T02:56:11;10.60;99.90
42031;DHT22;27709;52.036;5.906;2023-04-01T02:58:36;10.60;99.90
42031;DHT22;27709;52.036;5.906;2023-04-01T03:01:01;10.60;99.90
42031;DHT22;27709;52.036;5.906;2023-04-01T03:03:27;10.60;99.90
42031;DHT22;27709;52.036;5.906;2023-04-01T03:05:52;10.60;99.90
42031;DHT22;27709;52.036;5.906;2023-04-01T03:08:21;10.60;99.90
42031;DHT22;27709;52.036;5.906;2023-04-01T03:10:46;10.50;99.90
42031;DHT22;27709;52.036;5.906;2023-04-01T03:13:11;10.50;99.90
42031;DHT22;27709;52.036;5.906;2023-04-01T03:15:37;10.50;99.90
42031;DHT22;27709;52.036;5.906;2023-04-01T03:18:02;10.60;99.90
42031;DHT22;27709;52.036;5.906;2023-04-01T03:20:28;10.60;99.90
42031;DHT22;27709;52.036;5.906;2023-04-01T03:22:54;10.50;99.90
42031;DHT22;27709;52.036;5.906;2023-04-01T03:25:19;10.60;99.90
42031;DHT22;27709;52.036;5.906;2023-04-01T03:27:45;10.60;99.90
42031;DHT22;27709;52.036;5.906;2023-04-01T03:30:10;10.60;99.90
42031;DHT22;27709;52.036;5.906;2023-04-01T03:32:36;10.50;99.90
42031;DHT22;27709;52.036;5.906;2023-04-01T03:35:01;10.50;99.90
42031;DHT22;27709;52.036;5.906;2023-04-01T03:37:26;10.50;99.90
42031;DHT22;27709;52.036;5.906;2023-04-01T03:39:52;10.50;99.90
42031;DHT22;27709;52.036;5.906;2023-04-01T03:42:18;10.50;99.90
42031;DHT22;27709;52.036;5.906;2023-04-01T03:44:43;10.50;99.90
42031;DHT22;27709;52.036;5.906;2023-04-01T03:47:09;10.50;99.90
42031;DHT22;27709;52.036;5.906;2023-04-01T03:49:35;10.50;99.90
42031;DHT22;27709;52.036;5.906;2023-04-01T03:52:00;10.50;99.90
42031;DHT22;27709;52.036;5.906;2023-04-01T03:54:26;10.50;99.90
42031;DHT22;27709;52.036;5.906;2023-04-01T03:56:51;10.50;99.90
42031;DHT22;27709;52.036;5.906;2023-04-01T03:59:17;10.50;99.90
42031;DHT22;27709;52.036;5.906;2023-04-01T04:01:42;10.50;99.90
42031;DHT22;27709;52.036;5.906;2023-04-01T04:04:10;10.40;99.90
42031;DHT22;27709;52.036;5.906;2023-04-01T04:06:35;10.40;99.90
42031;DHT22;27709;52.036;5.906;2023-04-01T04:09:01;10.40;99.90
42031;DHT22;27709;52.036;5.906;2023-04-01T04:11:26;10.40;99.90
42031;DHT22;27709;52.036;5.906;2023-04-01T04:13:52;10.40;99.90
42031;DHT22;27709;52.036;5.906;2023-04-01T04:16:17;10.40;99.90
42031;DHT22;27709;52.036;5.906;2023-04-01T04:18:43;10.40;99.90
42031;DHT22;27709;52.036;5.906;2023-04-01T04:21:11;10.40;99.90
42031;DHT22;27709;52.036;5.906;2023-04-01T04:23:36;10.40;99.90
42031;DHT22;27709;52.036;5.906;2023-04-01T04:26:03;10.40;99.90
42031;DHT22;27709;52.036;5.906;2023-04-01T04:28:29;10.40;99.90
42031;DHT22;27709;52.036;5.906;2023-04-01T04:30:55;10.40;99.90
42031;DHT22;27709;52.036;5.906;2023-04-01T04:33:21;10.40;99.90
42031;DHT22;27709;52.036;5.906;2023-04-01T04:35:46;10.40;99.90
42031;DHT22;27709;52.036;5.906;2023-04-01T04:38:12;10.40;99.90
42031;DHT22;27709;52.036;5.906;2023-04-01T04:40:37;10.40;99.90
42031;DHT22;27709;52.036;5.906;2023-04-01T04:43:03;10.40;99.90
42031;DHT22;27709;52.036;5.906;2023-04-01T04:45:29;10.30;99.90
42031;DHT22;27709;52.036;5.906;2023-04-01T04:47:55;10.30;99.90
42031;DHT22;27709;52.036;5.906;2023-04-01T04:50:20;10.30;99.90
42031;DHT22;27709;52.036;5.906;2023-04-01T04:52:46;10.30;99.90
42031;DHT22;27709;52.036;5.906;2023-04-01T04:55:11;10.40;99.90
42031;DHT22;27709;52.036;5.906;2023-04-01T04:57:37;10.40;99.90
42031;DHT22;27709;52.036;5.906;2023-04-01T05:00:02;10.50;99.90
42031;DHT22;27709;52.036;5.906;2023-04-01T05:02:28;10.50;99.90
42031;DHT22;27709;52.036;5.906;2023-04-01T05:04:53;10.40;99.90
42031;DHT22;27709;52.036;5.906;2023-04-01T05:07:19;10.50;99.90
42031;DHT22;27709;52.036;5.906;2023-04-01T05:09:45;10.50;99.90
42031;DHT22;27709;52.036;5.906;2023-04-01T05:12:10;10.50;99.90
42031;DHT22;27709;52.036;5.906;2023-04-01T05:14:38;10.50;99.90
42031;DHT22;27709;52.036;5.906;2023-04-01T05:17:03;10.50;99.90
42031;DHT22;27709;52.036;5.906;2023-04-01T05:19:29;10.50;99.90
42031;DHT22;27709;52.036;5.906;2023-04-01T05:21:54;10.60;99.90
42031;DHT22;27709;52.036;5.906;2023-04-01T05:24:20;10.60;99.90
42031;DHT22;27709;52.036;5.906;2023-04-01T05:26:45;10.60;99.90
42031;DHT22;27709;52.036;5.906;2023-04-01T05:29:11;10.60;99.90
42031;DHT22;27709;52.036;5.906;2023-04-01T05:31:36;10.60;99.90
42031;DHT22;27709;52.036;5.906;2023-04-01T05:34:02;10.70;99.90
42031;DHT22;27709;52.036;5.906;2023-04-01T05:36:27;10.70;99.90
42031;DHT22;27709;52.036;5.906;2023-04-01T05:38:56;10.70;99.90
42031;DHT22;27709;52.036;5.906;2023-04-01T05:41:21;10.80;99.90
42031;DHT22;27709;52.036;5.906;2023-04-01T05:43:47;10.90;99.90
42031;DHT22;27709;52.036;5.906;2023-04-01T05:46:12;10.90;99.90
42031;DHT22;27709;52.036;5.906;2023-04-01T05:48:37;10.90;99.90
42031;DHT22;27709;52.036;5.906;2023-04-01T05:51:03;10.90;99.90
42031;DHT22;27709;52.036;5.906;2023-04-01T05:53:29;10.90;99.90
42031;DHT22;27709;52.036;5.906;2023-04-01T05:55:54;10.90;99.90
42031;DHT22;27709;52.036;5.906;2023-04-01T05:58:20;10.90;99.90
42031;DHT22;27709;52.036;5.906;2023-04-01T06:00:45;10.90;99.90
42031;DHT22;27709;52.036;5.906;2023-04-01T06:03:11;10.90;99.90
42031;DHT22;27709;52.036;5.906;2023-04-01T06:05:38;10.90;99.90
42031;DHT22;27709;52.036;5.906;2023-04-01T06:08:15;10.90;99.90
42031;DHT22;27709;52.036;5.906;2023-04-01T06:13:37;10.90;99.90
42031;DHT22;27709;52.036;5.906;2023-04-01T06:21:19;11.00;99.90
42031;DHT22;27709;52.036;5.906;2023-04-01T06:26:34;11.00;99.90
42031;DHT22;27709;52.036;5.906;2023-04-01T06:29:08;11.00;99.90
42031;DHT22;27709;52.036;5.906;2023-04-01T06:39:48;11.10;99.90
42031;DHT22;27709;52.036;5.906;2023-04-01T06:42:21;11.10;99.90
42031;DHT22;27709;52.036;5.906;2023-04-01T06:52:40;11.20;99.90
42031;DHT22;27709;52.036;5.906;2023-04-01T06:57:57;11.30;99.90
42031;DHT22;27709;52.036;5.906;2023-04-01T07:00:36;11.40;99.90
42031;DHT22;27709;52.036;5.906;2023-04-01T07:03:14;11.40;99.90
42031;DHT22;27709;52.036;5.906;2023-04-01T07:05:41;11.50;99.90
42031;DHT22;27709;52.036;5.906;2023-04-01T07:08:11;11.60;99.90
42031;DHT22;27709;52.036;5.906;2023-04-01T07:10:41;11.60;99.90
42031;DHT22;27709;52.036;5.906;2023-04-01T07:13:13;11.60;99.90
42031;DHT22;27709;52.036;5.906;2023-04-01T07:15:41;11.70;99.90
42031;DHT22;27709;52.036;5.906;2023-04-01T07:18:12;11.80;99.90
42031;DHT22;27709;52.036;5.906;2023-04-01T07:20:38;11.80;99.90
42031;DHT22;27709;52.036;5.906;2023-04-01T07:23:05;11.90;99.90
42031;DHT22;27709;52.036;5.906;2023-04-01T07:25:36;11.90;99.90
42031;DHT22;27709;52.036;5.906;2023-04-01T07:28:04;11.90;99.90
42031;DHT22;27709;52.036;5.906;2023-04-01T07:30:33;11.90;
42031;DHT22;27709;52.036;5.906;2023-04-01T07:33:13;11.90;99.90
42031;DHT22;27709;52.036;5.906;2023-04-01T07:35:43;12.00;99.90
42031;DHT22;27709;52.036;5.906;2023-04-01T07:40:41;12.10;99.90
42031;DHT22;27709;52.036;5.906;2023-04-01T07:45:48;12.20;99.90
42031;DHT22;27709;52.036;5.906;2023-04-01T07:53:46;12.30;99.90
42031;DHT22;27709;52.036;5.906;2023-04-01T07:56:19;12.40;99.90
42031;DHT22;27709;52.036;5.906;2023-04-01T07:59:05;12.40;99.90
42031;DHT22;27709;52.036;5.906;2023-04-01T08:14:36;12.40;99.90
42031;DHT22;27709;52.036;5.906;2023-04-01T08:17:15;12.40;99.90
42031;DHT22;27709;52.036;5.906;2023-04-01T08:22:27;12.50;99.90
42031;DHT22;27709;52.036;5.906;2023-04-01T08:24:53;12.50;99.90
42031;DHT22;27709;52.036;5.906;2023-04-01T08:27:21;12.60;99.90
42031;DHT22;27709;52.036;5.906;2023-04-01T08:29:50;12.60;99.90
42031;DHT22;27709;52.036;5.906;2023-04-01T08:32:22;12.70;99.90
42031;DHT22;27709;52.036;5.906;2023-04-01T08:34:53;12.70;99.90
42031;DHT22;27709;52.036;5.906;2023-04-01T08:37:22;12.80;99.90
42031;DHT22;27709;52.036;5.906;2023-04-01T08:40:00;12.80;99.90
42031;DHT22;27709;52.036;5.906;2023-04-01T08:45:15;12.90;99.90
42031;DHT22;27709;52.036;5.906;2023-04-01T08:47:52;12.90;99.90
42031;DHT22;27709;52.036;5.906;2023-04-01T08:53:14;12.90;99.90
42031;DHT22;27709;52.036;5.906;2023-04-01T09:03:23;12.90;99.90
42031;DHT22;27709;52.036;5.906;2023-04-01T09:13:44;13.10;99.90
42031;DHT22;27709;52.036;5.906;2023-04-01T09:21:20;13.20;99.90
42031;DHT22;27709;52.036;5.906;2023-04-01T09:24:07;13.30;99.90
42031;DHT22;27709;52.036;5.906;2023-04-01T09:26:50;13.30;99.90
42031;DHT22;27709;52.036;5.906;2023-04-01T09:34:54;13.30;99.90
42031;DHT22;27709;52.036;5.906;2023-04-01T09:37:30;13.40;99.90
42031;DHT22;27709;52.036;5.906;2023-04-01T09:40:15;13.30;99.90
42031;DHT22;27709;52.036;5.906;2023-04-01T09:42:53;13.30;99.90
42031;DHT22;27709;52.036;5.906;2023-04-01T09:48:03;13.10;99.90
42031;DHT22;27709;52.036;5.906;2023-04-01T09:58:27;12.90;99.90
42031;DHT22;27709;52.036;5.906;2023-04-01T10:03:52;12.80;99.90
42031;DHT22;27709;52.036;5.906;2023-04-01T10:24:37;13.00;99.90
42031;DHT22;27709;52.036;5.906;2023-04-01T10:27:11;13.00;99.90
42031;DHT22;27709;52.036;5.906;2023-04-01T11:03:34;13.40;99.90
42031;DHT22;27709;52.036;5.906;2023-04-01T11:11:39;13.60;99.90
42031;DHT22;27709;52.036;5.906;2023-04-01T11:22:12;13.50;99.90
42031;DHT22;27709;52.036;5.906;2023-04-01T11:24:45;13.40;99.90
42031;DHT22;27709;52.036;5.906;2023-04-01T11:27:21;13.40;99.90
42031;DHT22;27709;52.036;5.906;2023-04-01T11:40:29;13.10;99.90
42031;DHT22;27709;52.036;5.906;2023-04-01T11:43:06;13.00;99.90
42031;DHT22;27709;52.036;5.906;2023-04-01T11:45:53;12.90;99.90
42031;DHT22;27709;52.036;5.906;2023-04-01T11:48:44;12.90;99.90
42031;DHT22;27709;52.036;5.906;2023-04-01T11:53:46;12.80;99.90
42031;DHT22;27709;52.036;5.906;2023-04-01T12:11:33;12.60;99.90
42031;DHT22;27709;52.036;5.906;2023-04-01T12:14:10;12.60;99.90
42031;DHT22;27709;52.036;5.906;2023-04-01T12:21:35;12.70;99.90
42031;DHT22;27709;52.036;5.906;2023-04-01T12:37:36;13.00;99.90
42031;DHT22;27709;52.036;5.906;2023-04-01T12:53:11;13.20;99.90
42031;DHT22;27709;52.036;5.906;2023-04-01T12:55:43;13.20;99.90
42031;DHT22;27709;52.036;5.906;2023-04-01T12:58:32;13.20;99.90
42031;DHT22;27709;52.036;5.906;2023-04-01T13:06:24;13.40;99.90
42031;DHT22;27709;52.036;5.906;2023-04-01T13:16:19;13.70;99.90
42031;DHT22;27709;52.036;5.906;2023-04-01T13:21:38;13.80;99.90
42031;DHT22;27709;52.036;5.906;2023-04-01T13:24:24;13.70;99.90
42031;DHT22;27709;52.036;5.906;2023-04-01T13:26:56;13.70;99.90
42031;DHT22;27709;52.036;5.906;2023-04-01T13:32:10;13.50;99.90
42031;DHT22;27709;52.036;5.906;2023-04-01T13:34:59;13.50;99.90
42031;DHT22;27709;52.036;5.906;2023-04-01T13:42:41;13.10;99.90
42031;DHT22;27709;52.036;5.906;2023-04-01T14:00:55;12.60;99.90
42031;DHT22;27709;52.036;5.906;2023-04-01T14:03:30;12.70;99.90
42031;DHT22;27709;52.036;5.906;2023-04-01T14:05:59;12.70;99.90
42031;DHT22;27709;52.036;5.906;2023-04-01T14:13:34;12.80;99.90
42031;DHT22;27709;52.036;5.906;2023-04-01T14:21:13;12.90;99.90
42031;DHT22;27709;52.036;5.906;2023-04-01T14:31:18;13.00;99.90
42031;DHT22;27709;52.036;5.906;2023-04-01T14:33:54;13.10;99.90
42031;DHT22;27709;52.036;5.906;2023-04-01T14:36:29;13.20;99.90
42031;DHT22;27709;52.036;5.906;2023-04-01T14:41:28;13.30;99.90
42031;DHT22;27709;52.036;5.906;2023-04-01T14:44:01;13.40;99.90
42031;DHT22;27709;52.036;5.906;2023-04-01T14:48:59;13.40;99.90
42031;DHT22;27709;52.036;5.906;2023-04-01T14:51:31;13.40;99.90
42031;DHT22;27709;52.036;5.906;2023-04-01T14:54:05;13.30;99.90
42031;DHT22;27709;52.036;5.906;2023-04-01T14:56:35;13.20;99.90
42031;DHT22;27709;52.036;5.906;2023-04-01T14:59:01;13.10;99.90
42031;DHT22;27709;52.036;5.906;2023-04-01T15:01:36;13.10;99.90
42031;DHT22;27709;52.036;5.906;2023-04-01T15:04:26;13.10;99.90
42031;DHT22;27709;52.036;5.906;2023-04-01T15:07:17;13.10;99.90
42031;DHT22;27709;52.036;5.906;2023-04-01T15:12:36;13.10;99.90
42031;DHT22;27709;52.036;5.906;2023-04-01T15:22:41;13.00;99.90
42031;DHT22;27709;52.036;5.906;2023-04-01T15:28:18;12.70;99.90
42031;DHT22;27709;52.036;5.906;2023-04-01T15:35:56;12.30;99.90
42031;DHT22;27709;52.036;5.906;2023-04-01T15:38:30;12.30;99.90
42031;DHT22;27709;52.036;5.906;2023-04-01T15:44:00;12.10;99.90
42031;DHT22;27709;52.036;5.906;2023-04-01T15:49:09;12.10;99.90
42031;DHT22;27709;52.036;5.906;2023-04-01T15:54:06;12.10;99.90
42031;DHT22;27709;52.036;5.906;2023-04-01T16:02:27;11.90;99.90
42031;DHT22;27709;52.036;5.906;2023-04-01T16:05:00;11.80;99.90
42031;DHT22;27709;52.036;5.906;2023-04-01T16:07:30;11.80;99.90
42031;DHT22;27709;52.036;5.906;2023-04-01T16:18:51;11.80;99.90
42031;DHT22;27709;52.036;5.906;2023-04-01T16:23:16;11.90;99.90
42031;DHT22;27709;52.036;5.906;2023-04-01T16:25:44;11.80;99.90
42031;DHT22;27709;52.036;5.906;2023-04-01T16:28:27;11.70;99.90
42031;DHT22;27709;52.036;5.906;2023-04-01T16:31:00;11.70;99.90
42031;DHT22;27709;52.036;5.906;2023-04-01T16:36:21;11.60;99.90
42031;DHT22;27709;52.036;5.906;2023-04-01T16:38:50;11.50;99.90
42031;DHT22;27709;52.036;5.906;2023-04-01T16:41:24;11.40;99.90
42031;DHT22;27709;52.036;5.906;2023-04-01T16:44:10;11.40;99.90
42031;DHT22;27709;52.036;5.906;2023-04-01T16:46:41;11.40;99.90
42031;DHT22;27709;52.036;5.906;2023-04-01T16:59:36;11.00;99.90
42031;DHT22;27709;52.036;5.906;2023-04-01T17:04:57;10.90;99.90
42031;DHT22;27709;52.036;5.906;2023-04-01T17:25:37;10.60;99.90
42031;DHT22;27709;52.036;5.906;2023-04-01T17:28:05;10.50;99.90
42031;DHT22;27709;52.036;5.906;2023-04-01T17:35:59;10.40;99.90
42031;DHT22;27709;52.036;5.906;2023-04-01T17:41:16;10.40;99.90
42031;DHT22;27709;52.036;5.906;2023-04-01T17:49:01;10.30;99.90
42031;DHT22;27709;52.036;5.906;2023-04-01T17:54:03;10.30;99.90
42031;DHT22;27709;52.036;5.906;2023-04-01T18:01:35;10.10;99.90
42031;DHT22;27709;52.036;5.906;2023-04-01T18:14:13;9.70;99.90
42031;DHT22;27709;52.036;5.906;2023-04-01T18:19:23;9.70;99.90
42031;DHT22;27709;52.036;5.906;2023-04-01T18:24:23;9.70;99.90
42031;DHT22;27709;52.036;5.906;2023-04-01T18:27:02;9.70;99.90
42031;DHT22;27709;52.036;5.906;2023-04-01T18:32:14;9.60;99.90
42031;DHT22;27709;52.036;5.906;2023-04-01T18:34:52;9.60;99.90
42031;DHT22;27709;52.036;5.906;2023-04-01T18:39:57;9.50;99.90
42031;DHT22;27709;52.036;5.906;2023-04-01T18:42:34;9.60;99.90
42031;DHT22;27709;52.036;5.906;2023-04-01T18:45:14;9.50;99.90
42031;DHT22;27709;52.036;5.906;2023-04-01T18:47:54;9.40;99.90
42031;DHT22;27709;52.036;5.906;2023-04-01T18:50:23;9.40;99.90
42031;DHT22;27709;52.036;5.906;2023-04-01T18:53:38;9.40;99.90
42031;DHT22;27709;52.036;5.906;2023-04-01T18:55:43;9.40;99.90
42031;DHT22;27709;52.036;5.906;2023-04-01T19:01:05;9.30;99.90
42031;DHT22;27709;52.036;5.906;2023-04-01T19:03:53;9.30;99.90
42031;DHT22;27709;52.036;5.906;2023-04-01T19:06:23;9.40;99.90
42031;DHT22;27709;52.036;5.906;2023-04-01T19:08:51;9.40;99.90
42031;DHT22;27709;52.036;5.906;2023-04-01T19:11:23;9.30;99.90
42031;DHT22;27709;52.036;5.906;2023-04-01T19:27:24;9.00;99.90
42031;DHT22;27709;52.036;5.906;2023-04-01T19:30:01;9.10;99.90
42031;DHT22;27709;52.036;5.906;2023-04-01T19:35:24;9.00;99.90
42031;DHT22;27709;52.036;5.906;2023-04-01T19:40:51;9.00;99.90
42031;DHT22;27709;52.036;5.906;2023-04-01T19:56:56;8.70;99.90
42031;DHT22;27709;52.036;5.906;2023-04-01T19:59:34;8.70;99.90
42031;DHT22;27709;52.036;5.906;2023-04-01T20:14:36;8.50;99.90
42031;DHT22;27709;52.036;5.906;2023-04-01T20:19:41;8.50;99.90
42031;DHT22;27709;52.036;5.906;2023-04-01T20:22:23;8.50;99.90
42031;DHT22;27709;52.036;5.906;2023-04-01T20:24:53;8.50;99.90
42031;DHT22;27709;52.036;5.906;2023-04-01T20:27:23;8.50;99.90
42031;DHT22;27709;52.036;5.906;2023-04-01T20:30:04;8.40;99.90
42031;DHT22;27709;52.036;5.906;2023-04-01T20:32:45;8.40;99.90
42031;DHT22;27709;52.036;5.906;2023-04-01T20:35:34;8.40;99.90
42031;DHT22;27709;52.036;5.906;2023-04-01T20:53:16;8.00;99.90
42031;DHT22;27709;52.036;5.906;2023-04-01T21:01:13;8.00;99.90
42031;DHT22;27709;52.036;5.906;2023-04-01T21:04:26;8.00;99.90
42031;DHT22;27709;52.036;5.906;2023-04-01T21:06:50;8.00;99.90
42031;DHT22;27709;52.036;5.906;2023-04-01T21:14:44;8.00;99.90
42031;DHT22;27709;52.036;5.906;2023-04-01T21:17:15;8.00;99.90
42031;DHT22;27709;52.036;5.906;2023-04-01T21:27:48;7.80;99.90
42031;DHT22;27709;52.036;5.906;2023-04-01T21:48:12;7.80;99.90
42031;DHT22;27709;52.036;5.906;2023-04-01T22:13:39;7.60;99.90
42031;DHT22;27709;52.036;5.906;2023-04-01T22:16:11;7.60;99.90
42031;DHT22;27709;52.036;5.906;2023-04-01T22:18:43;7.60;99.90
42031;DHT22;27709;52.036;5.906;2023-04-01T22:21:24;7.60;99.90
42031;DHT22;27709;52.036;5.906;2023-04-01T22:23:57;7.70;99.90
42031;DHT22;27709;52.036;5.906;2023-04-01T22:26:37;7.70;99.90
42031;DHT22;27709;52.036;5.906;2023-04-01T22:29:10;7.60;99.90
42031;DHT22;27709;52.036;5.906;2023-04-01T22:31:46;7.60;99.90
42031;DHT22;27709;52.036;5.906;2023-04-01T22:34:28;7.60;99.90
42031;DHT22;27709;52.036;5.906;2023-04-01T22:42:19;7.60;99.90
42031;DHT22;27709;52.036;5.906;2023-04-01T22:47:19;7.70;99.90
42031;DHT22;27709;52.036;5.906;2023-04-01T22:49:50;7.60;99.90
42031;DHT22;27709;52.036;5.906;2023-04-01T22:52:25;7.60;99.90
42031;DHT22;27709;52.036;5.906;2023-04-01T22:54:55;7.60;99.90
42031;DHT22;27709;52.036;5.906;2023-04-01T22:57:35;7.60;99.90
42031;DHT22;27709;52.036;5.906;2023-04-01T23:02:37;7.60;99.90
42031;DHT22;27709;52.036;5.906;2023-04-01T23:05:04;7.60;99.90
42031;DHT22;27709;52.036;5.906;2023-04-01T23:10:23;7.60;99.90
42031;DHT22;27709;52.036;5.906;2023-04-01T23:12:51;7.60;99.90
42031;DHT22;27709;52.036;5.906;2023-04-01T23:15:17;7.60;99.90
42031;DHT22;27709;52.036;5.906;2023-04-01T23:20:26;7.60;99.90
42031;DHT22;27709;52.036;5.906;2023-04-01T23:35:51;7.60;99.90
42031;DHT22;27709;52.036;5.906;2023-04-01T23:38:17;7.60;99.90
42031;DHT22;27709;52.036;5.906;2023-04-01T23:40:43;7.60;99.90
42031;DHT22;27709;52.036;5.906;2023-04-01T23:43:13;7.60;99.90
42031;DHT22;27709;52.036;5.906;2023-04-01T23:45:40;7.60;99.90
42031;DHT22;27709;52.036;5.906;2023-04-01T23:48:07;7.50;99.90
42031;DHT22;27709;52.036;5.906;2023-04-01T23:50:36;7.50;99.90
42031;DHT22;27709;52.036;5.906;2023-04-01T23:53:03;7.40;99.90
42031;DHT22;27709;52.036;5.906;2023-04-01T23:55:32;7.40;99.90
